»·PEaware :: UAL447 KDEN-KLAX

UAL447 :: KDEN-KLAX

FLIGHT INFORMATION

Flight Status: Arrived
Operator:
United Airlines
More flights by this operator :: More flights under this callsign
Pilot: Saso K. (7898)
Aircraft: BOEING 737-300
(B733)
More flights by this aircraft type
Origin: KDEN Denver Intl
United States
Destination: KLAX Los Angeles Intl
United States
More flights between these airports :: More routes between these airports
Route: +BAYLR3 TEHRU DVC PGS RIIVR3
File this flight plan on PilotEdge
Remarks: EET / KZLA0101
Altitude:
(Current/Filed)
34,000ft
Speed:
(Current/Filed)
439kts
Departed: 29-Dec-16 11:35 AM
Arrived: 29-Dec-16 01:42 PM
Distance/Time
Traveled:
747nm/2:07
Distance/Time
To Go:
Arrived

Flight Plot

Page will automatically refresh every two minutes.


Map Options




Map Legend


Flown Route
Filed Route
Departure Airport
Arrival Airport
Navaid (VOR, NDB)
Fix

Horizontal Profiles

Position Reports

Time Latitude Longitude Heading Altitude Ground
Speed
29-Dec-16 11:01 39.859325 -104.675249 180 5389ft 0kts
29-Dec-16 11:02 39.859325 -104.675249 180 5389ft 0kts
29-Dec-16 11:03 39.859325 -104.675249 180 5389ft 0kts
29-Dec-16 11:04 39.859325 -104.675249 180 5389ft 0kts
29-Dec-16 11:05 39.859325 -104.675249 180 5389ft 0kts
29-Dec-16 11:06 39.859325 -104.675249 180 5389ft 0kts
29-Dec-16 11:07 39.859325 -104.675249 180 5389ft 0kts
29-Dec-16 11:08 39.859325 -104.675249 180 5389ft 0kts
29-Dec-16 11:09 39.859325 -104.675249 180 5389ft 0kts
29-Dec-16 11:10 39.859325 -104.675249 180 5389ft 0kts
29-Dec-16 11:11 39.859325 -104.675249 180 5389ft 0kts
29-Dec-16 11:12 39.859325 -104.675249 180 5389ft 0kts
29-Dec-16 11:13 39.859325 -104.675249 180 5389ft 0kts
29-Dec-16 11:14 39.859325 -104.675249 180 5389ft 0kts
29-Dec-16 11:15 39.859325 -104.675249 180 5389ft 0kts
29-Dec-16 11:16 39.859325 -104.675249 180 5389ft 0kts
29-Dec-16 11:17 39.859325 -104.675249 180 5389ft 0kts
29-Dec-16 11:18 39.859325 -104.675249 180 5389ft 0kts
29-Dec-16 11:19 39.859325 -104.675249 180 5389ft 0kts
29-Dec-16 11:20 39.859325 -104.675249 180 5389ft 0kts
29-Dec-16 11:21 39.859325 -104.675249 180 5389ft 0kts
29-Dec-16 11:22 39.859325 -104.675249 180 5389ft 0kts
29-Dec-16 11:23 39.859325 -104.675249 180 5389ft 0kts
29-Dec-16 11:24 39.859325 -104.675249 180 5389ft 0kts
29-Dec-16 11:25 39.859857 -104.675243 181 5387ft 2kts
29-Dec-16 11:26 39.860034 -104.675089 275 5387ft 0kts
29-Dec-16 11:27 39.860034 -104.675091 277 5387ft 0kts
29-Dec-16 11:28 39.860028 -104.677686 271 5372ft 12kts
29-Dec-16 11:29 39.860508 -104.681593 237 5343ft 10kts
29-Dec-16 11:30 39.860324 -104.683051 268 5336ft 4kts
29-Dec-16 11:31 39.857701 -104.683998 180 5331ft 13kts
29-Dec-16 11:32 39.852675 -104.684031 180 5320ft 20kts
29-Dec-16 11:32 39.847607 -104.684094 180 5309ft 22kts
29-Dec-16 11:34 39.841097 -104.684157 180 5318ft 11kts
29-Dec-16 11:34 39.840713 -104.690351 269 5325ft 82kts
29-Dec-16 11:36 39.841833 -104.753676 260 6859ft 170kts
29-Dec-16 11:36 39.826819 -104.812583 249 7685ft 248kts
29-Dec-16 11:38 39.797924 -104.915205 250 10023ft 266kts
29-Dec-16 11:38 39.774111 -104.999196 253 11193ft 323kts
29-Dec-16 11:40 39.731846 -105.122981 247 14688ft 334kts
29-Dec-16 11:41 39.693054 -105.232071 247 17403ft 343kts
29-Dec-16 11:41 39.659900 -105.324896 247 19415ft 351kts
29-Dec-16 11:43 39.611422 -105.458947 248 22002ft 362kts
29-Dec-16 11:43 39.576444 -105.557881 249 23692ft 369kts
29-Dec-16 11:44 39.537888 -105.674313 253 25446ft 376kts
29-Dec-16 11:45 39.503754 -105.796663 253 27102ft 384kts
29-Dec-16 11:47 39.461704 -105.947839 254 29103ft 389kts
29-Dec-16 11:47 39.431837 -106.054697 254 30870ft 379kts
29-Dec-16 11:48 39.396665 -106.180032 255 32522ft 374kts
29-Dec-16 11:49 39.360498 -106.303505 255 33984ft 369kts
29-Dec-16 11:50 39.325051 -106.428195 255 34517ft 378kts
29-Dec-16 11:51 39.289242 -106.553838 255 34499ft 374kts
29-Dec-16 11:52 39.257321 -106.665434 255 34520ft 375kts
29-Dec-16 11:53 39.207190 -106.778145 238 34538ft 390kts
29-Dec-16 11:54 39.139270 -106.885634 238 34537ft 390kts
29-Dec-16 11:55 39.071685 -106.992863 237 34540ft 391kts
29-Dec-16 11:56 39.004412 -107.099257 236 34548ft 393kts
29-Dec-16 11:57 38.935695 -107.207576 234 34585ft 397kts
29-Dec-16 11:58 38.886926 -107.284223 233 34610ft 400kts
29-Dec-16 11:59 38.816847 -107.394024 233 34620ft 402kts
29-Dec-16 12:00 38.746621 -107.503690 233 34613ft 402kts
29-Dec-16 12:01 38.679835 -107.607627 233 34613ft 401kts
29-Dec-16 12:02 38.622879 -107.696016 233 34614ft 402kts
29-Dec-16 12:03 38.554271 -107.802157 233 34612ft 401kts
29-Dec-16 12:04 38.483927 -107.910620 233 34613ft 402kts
29-Dec-16 12:05 38.413592 -108.018720 233 34612ft 401kts
29-Dec-16 12:06 38.342966 -108.126883 233 34609ft 402kts
29-Dec-16 12:07 38.272003 -108.235203 233 34605ft 402kts
29-Dec-16 12:08 38.201366 -108.342665 233 34600ft 402kts
29-Dec-16 12:09 38.130262 -108.450478 233 34599ft 402kts
29-Dec-16 12:10 38.066574 -108.546742 233 34604ft 402kts
29-Dec-16 12:11 37.998119 -108.649892 233 34603ft 402kts
29-Dec-16 12:12 37.929495 -108.752955 232 34604ft 402kts
29-Dec-16 12:13 37.861394 -108.854926 232 34600ft 402kts
29-Dec-16 12:14 37.793521 -108.964326 241 34622ft 398kts
29-Dec-16 12:15 37.739753 -109.084543 242 34620ft 399kts
29-Dec-16 12:16 37.685788 -109.206239 242 34620ft 403kts
29-Dec-16 12:17 37.631551 -109.328095 242 34622ft 402kts
29-Dec-16 12:18 37.577496 -109.449090 242 34621ft 403kts
29-Dec-16 12:19 37.524254 -109.567824 242 34621ft 402kts
29-Dec-16 12:20 37.472680 -109.682429 241 34624ft 403kts
29-Dec-16 12:21 37.420528 -109.797903 241 34620ft 403kts
29-Dec-16 12:22 37.365912 -109.918397 241 34622ft 403kts
29-Dec-16 12:24 37.310789 -110.038243 241 34621ft 403kts
29-Dec-16 12:25 37.255471 -110.159189 241 34622ft 403kts
29-Dec-16 12:26 37.204774 -110.269867 241 34622ft 403kts
29-Dec-16 12:27 37.149246 -110.390672 241 34622ft 403kts
29-Dec-16 12:28 37.094312 -110.509745 241 34595ft 402kts
29-Dec-16 12:29 37.039933 -110.627193 241 34553ft 400kts
29-Dec-16 12:30 36.986925 -110.741271 240 34548ft 398kts
29-Dec-16 12:31 36.931374 -110.860408 240 34545ft 397kts
29-Dec-16 12:32 36.878216 -110.974016 240 34550ft 400kts
29-Dec-16 12:33 36.823438 -111.090677 239 34559ft 402kts
29-Dec-16 12:34 36.767290 -111.209831 239 34560ft 403kts
29-Dec-16 12:35 36.711524 -111.327753 239 34556ft 403kts
29-Dec-16 12:36 36.655427 -111.445954 239 34558ft 403kts
29-Dec-16 12:37 36.598963 -111.564509 239 34556ft 403kts
29-Dec-16 12:38 36.545602 -111.676164 239 34559ft 403kts
29-Dec-16 12:39 36.488899 -111.794407 239 34556ft 403kts
29-Dec-16 12:40 36.431893 -111.912861 239 34538ft 403kts
29-Dec-16 12:41 36.374732 -112.031220 239 34508ft 403kts
29-Dec-16 12:42 36.317483 -112.149345 239 34503ft 403kts
29-Dec-16 12:43 36.262521 -112.262373 239 34503ft 403kts
29-Dec-16 12:44 36.205284 -112.379674 239 34502ft 403kts
29-Dec-16 12:45 36.148054 -112.496553 239 34503ft 403kts
29-Dec-16 12:46 36.090460 -112.613769 239 34503ft 404kts
29-Dec-16 12:47 36.035799 -112.724636 238 34504ft 404kts
29-Dec-16 12:48 35.978152 -112.841174 238 34503ft 403kts
29-Dec-16 12:49 35.919960 -112.958416 238 34502ft 404kts
29-Dec-16 12:50 35.863996 -113.070788 238 34500ft 405kts
29-Dec-16 12:51 35.805728 -113.187395 238 34443ft 404kts
29-Dec-16 12:52 35.747346 -113.303834 238 34394ft 404kts
29-Dec-16 12:53 35.691262 -113.415318 238 34393ft 404kts
29-Dec-16 12:54 35.634564 -113.527658 238 34394ft 404kts
29-Dec-16 12:55 35.583518 -113.644828 243 34392ft 403kts
29-Dec-16 12:56 35.548760 -113.730627 243 34393ft 403kts
29-Dec-16 12:57 35.499641 -113.851700 243 34393ft 403kts
29-Dec-16 12:58 35.449796 -113.974121 243 34392ft 403kts
29-Dec-16 12:59 35.399983 -114.096017 243 34392ft 403kts
29-Dec-16 13:00 35.349864 -114.218209 243 34394ft 403kts
29-Dec-16 13:01 35.300092 -114.339114 243 34373ft 403kts
29-Dec-16 13:02 35.249641 -114.461216 243 34340ft 403kts
29-Dec-16 13:03 35.199548 -114.582010 243 34301ft 403kts
29-Dec-16 13:04 35.151939 -114.696405 242 34304ft 404kts
29-Dec-16 13:05 35.101394 -114.817435 242 34301ft 404kts
29-Dec-16 13:06 35.050677 -114.938484 242 34301ft 404kts
29-Dec-16 13:07 34.999741 -115.058782 242 34313ft 404kts
29-Dec-16 13:08 34.948602 -115.179716 242 34328ft 404kts
29-Dec-16 13:09 34.898774 -115.297309 242 34330ft 404kts
29-Dec-16 13:10 34.866401 -115.373480 242 34329ft 404kts
29-Dec-16 13:11 34.815148 -115.493735 242 34337ft 404kts
29-Dec-16 13:12 34.763837 -115.613699 242 34375ft 404kts
29-Dec-16 13:13 34.734263 -115.682657 241 34398ft 404kts
29-Dec-16 13:14 34.712250 -115.733865 241 34403ft 403kts
29-Dec-16 13:15 34.660708 -115.853219 241 34401ft 403kts
29-Dec-16 13:16 34.608843 -115.973186 241 33616ft 403kts
29-Dec-16 13:17 34.556816 -116.092618 241 32638ft 407kts
29-Dec-16 13:18 34.504381 -116.213027 241 31656ft 409kts
29-Dec-16 13:19 34.451653 -116.333723 241 30678ft 412kts
29-Dec-16 13:20 34.398121 -116.455453 240 29695ft 414kts
29-Dec-16 13:21 34.344423 -116.577053 240 28437ft 411kts
29-Dec-16 13:22 34.302232 -116.672652 240 26848ft 395kts
29-Dec-16 13:23 34.260882 -116.766061 239 25001ft 388kts
29-Dec-16 13:24 34.211500 -116.877273 239 22859ft 380kts
29-Dec-16 13:25 34.162434 -116.987460 239 20772ft 372kts
29-Dec-16 13:26 34.114309 -117.095196 238 18637ft 369kts
29-Dec-16 13:27 34.068321 -117.200330 238 17115ft 349kts
29-Dec-16 13:28 34.041739 -117.311810 261 15656ft 366kts
29-Dec-16 13:29 34.031022 -117.428076 261 13655ft 357kts
29-Dec-16 13:30 34.020574 -117.538852 261 12132ft 339kts
29-Dec-16 13:31 34.010185 -117.647998 262 10378ft 331kts
29-Dec-16 13:32 34.001707 -117.735876 261 9972ft 290kts
29-Dec-16 13:33 33.992747 -117.828107 262 8593ft 284kts
29-Dec-16 13:34 33.983827 -117.918911 262 7260ft 278kts
29-Dec-16 13:35 33.975060 -118.007602 263 5984ft 271kts
29-Dec-16 13:36 33.966646 -118.092456 263 4963ft 256kts
29-Dec-16 13:37 33.958874 -118.170368 263 3605ft 226kts
29-Dec-16 13:38 33.952407 -118.234601 263 2594ft 179kts
29-Dec-16 13:39 33.947023 -118.287823 263 1693ft 169kts
29-Dec-16 13:40 33.942084 -118.336185 264 885ft 144kts
29-Dec-16 13:41 33.937423 -118.382064 264 144ft 142kts
29-Dec-16 13:42 33.936266 -118.404015 273 120ft 0kts
29-Dec-16 13:43 33.936267 -118.404043 272 120ft 0kts
29-Dec-16 13:44 33.936092 -118.405898 262 124ft 14kts
29-Dec-16 13:45 33.938217 -118.409186 356 125ft 14kts
29-Dec-16 13:46 33.939194 -118.403968 82 120ft 19kts
29-Dec-16 13:47 33.940020 -118.398270 14 112ft 12kts
29-Dec-16 13:48 33.942232 -118.398934 266 113ft 3kts
29-Dec-16 13:49 33.942217 -118.399132 264 114ft 0kts
29-Dec-16 13:50 33.942217 -118.399132 264 114ft 0kts
29-Dec-16 13:51 33.942217 -118.399132 264 114ft 0kts
29-Dec-16 13:52 33.942217 -118.399132 264 114ft 0kts
29-Dec-16 13:53 33.942217 -118.399132 264 114ft 0kts
29-Dec-16 13:54 33.942217 -118.399132 264 114ft 0kts
29-Dec-16 13:55 33.942217 -118.399132 264 114ft 0kts
29-Dec-16 13:56 33.942217 -118.399132 264 114ft 0kts
29-Dec-16 13:57 33.942217 -118.399132 264 114ft 0kts

Navigation Log

Ident Type
1. KDEN Airport
2. BOBBA Fix
3. TEHRU Fix
4. DVC Navaid
5. PGS Navaid
6. ETINE Fix
7. BUGGA Fix
8. DIKES Fix
9. EMMEY Fix
10. GRAMM Fix
11. RUSTT Fix
12. HABSO Fix
13. RIIVR Fix
14. KLAX Airport